Latest Coastal Weather Observations for Dennes Point

IDT60701

Issued at 11:45 pm EST Thursday 18 September 2014 (issued every 10 minutes, with the page automatically refreshed every 10 minutes)

About coastal observations | Map of coastal stations | Coastal observations for TAS | Marine services | Other Formats
Station Details ID: 094255 Name: DENNES POINT Lat: -43.06 Lon: 147.36 Height: 5.67 m
Data from the previous 72 hours. | See also: Recent months at Dennes Point
Date/Time
EST
Temp

°C
Wind Pressure Rain
since 9am
mm
Weather Cloud Vis
km
Sea
Height
m
Swell
Dir
 
Speed
knots
Gust
knots
hPa Trend Height
m
Period
s
Dir
18/11:30pm 10.0 W 15 21 1013.9 - 0.8 - - - - - - -
18/11:00pm 10.0 W 14 17 1014.1 - 0.8 - - - - - - -
18/10:30pm 9.8 W 15 19 1014.2 - 0.8 - - - - - - -
18/10:00pm 9.9 WSW 12 15 1014.6 - 0.8 - - - - - - -
18/09:30pm 9.5 W 15 18 1014.8 - 0.8 - - - - - - -
18/09:00pm 9.6 W 15 20 1015.1 - 0.8 - - - - - - -
18/08:30pm 9.6 WSW 12 16 1015.7 - 0.8 - - - - - - -
18/08:00pm 9.8 W 11 14 1015.6 - 0.8 - - - - - - -
18/07:30pm 9.8 W 14 18 1015.5 - 0.8 - - - - - - -
18/07:00pm 9.8 W 15 20 1015.3 - 0.8 - - - - - - -
18/06:30pm 9.7 W 16 22 1015.1 - 0.8 - - - - - - -
18/06:00pm 9.9 WSW 18 23 1014.9 - 0.8 - - - - - - -
18/05:30pm 10.3 WSW 15 20 1014.9 - 0.8 - - - - - - -
18/05:00pm 10.5 WSW 15 22 1014.5 - 0.8 - - - - - - -
18/04:30pm 11.1 WSW 13 19 1014.4 - 0.8 - - - - - - -
18/04:00pm 9.9 SSW 9 13 1014.1 - 0.8 - - - - - - -
18/03:30pm 10.5 WSW 13 17 1013.9 - 0.8 - - - - - - -
18/03:00pm 10.2 WSW 14 22 1014.0 - 0.8 Recent precip. - - - - - -
18/02:30pm 9.0 WSW 16 21 1014.2 - 0.8 - - - - - - -
18/02:00pm 8.2 SW 14 20 1014.3 - 0.6 - - - - - - -
18/01:30pm 8.9 SW 14 20 1014.3 - 0.4 - - - - - - -
18/01:00pm 8.9 SW 11 15 1014.0 - 0.2 - - - - - - -
18/12:30pm 10.4 WSW 15 19 1013.9 - 0.0 - - - - - - -
18/12:09pm 10.8 WSW 16 26 1013.9 - 0.0 - - - - - - -
18/12:00pm 11.6 WSW 17 23 1014.0 - 0.0 - - - - - - -
18/11:30am 12.1 W 13 17 1014.6 - 0.0 - - - - - - -
18/11:00am 10.8 SW 10 13 1014.9 - 0.0 - - - - - - -
18/10:30am 10.3 WSW 17 24 1015.2 - 0.0 - - - - - - -
18/10:00am 9.9 WSW 13 16 1015.5 - 0.0 - - - - - - -
18/09:30am 9.1 WSW 17 22 1015.6 - 0.0 - - - - - - -
18/09:00am 8.8 WSW 11 15 1015.7 - 5.0 - - - - - - -
18/08:30am 8.4 WSW 10 13 1015.6 - 5.0 - - - - - - -
18/08:00am 7.3 WSW 12 16 1015.5 - 5.0 - - - - - - -
18/07:30am 7.1 WSW 13 17 1015.2 - 4.8 - - - - - - -
18/07:00am 7.2 WSW 13 18 1014.6 - 4.6 - - - - - - -
18/06:30am 7.2 SW 12 15 1014.3 - 4.4 - - - - - - -
18/06:00am 7.3 WSW 15 19 1013.6 - 4.0 Rain - - - - - -
18/05:30am 7.2 WSW 12 15 1013.1 - 3.8 - - - - - - -
18/05:00am 7.2 WSW 9 12 1012.8 - 3.8 - - - - - - -
18/04:30am 7.4 SW 11 16 1012.3 - 3.8 - - - - - - -
18/04:00am 7.3 WSW 15 20 1011.9 - 3.8 - - - - - - -
18/03:30am 7.7 WSW 15 19 1011.7 - 3.6 - - - - - - -
18/03:00am 7.6 WSW 15 21 1011.4 - 3.6 Recent precip. - - - - - -
18/02:30am 7.6 W 16 19 1011.2 - 3.4 - - - - - - -
18/02:09am 7.6 W 15 25 1011.0 - 3.4 - - - - - - -
18/02:00am 7.4 W 11 13 1011.0 - 3.4 - - - - - - -
18/01:30am 7.9 WSW 18 25 1010.7 - 3.2 - - - - - - -
18/01:00am 7.3 WSW 18 23 1010.3 - 3.2 - - - - - - -
18/12:30am 7.1 WSW 15 21 1010.1 - 3.0 - - - - - - -
18/12:00am 7.2 WSW 16 22 1009.6 - 2.2 Rain - - - - - -
 
Date/Time
EST
Temp

°C
Wind Pressure Rain
since 9am
mm
Weather Cloud Vis
km
Sea
Height
m
Swell
Dir
 
Speed
knots
Gust
knots
hPa Trend Height
m
Period
s
Dir
17/11:30pm 7.2 WSW 16 22 1009.2 - 1.6 - - - - - - -
17/11:04pm 7.3 WSW 17 28 1008.7 - 1.2 - - - - - - -
17/11:00pm 7.1 WSW 17 22 1008.6 - 1.2 - - - - - - -
17/10:30pm 7.5 W 15 19 1008.4 - 1.0 - - - - - - -
17/10:00pm 7.7 W 13 17 1008.1 - 1.0 - - - - - - -
17/09:30pm 7.7 W 15 19 1007.8 - 1.0 - - - - - - -
17/09:00pm 7.9 WSW 13 19 1007.4 - 1.0 - - - - - - -
17/08:30pm 8.1 WSW 11 16 1007.2 - 1.0 - - - - - - -
17/08:00pm 7.8 W 15 19 1006.6 - 1.0 - - - - - - -
17/07:30pm 7.9 W 18 23 1006.4 - 1.0 - - - - - - -
17/07:00pm 8.2 WSW 19 25 1006.1 - 1.0 - - - - - - -
17/06:30pm 8.4 WSW 17 23 1005.9 - 1.0 - - - - - - -
17/06:00pm 8.5 WSW 18 24 1005.5 - 1.0 - - - - - - -
17/05:30pm 9.2 WSW 18 27 1005.1 - 1.0 - - - - - - -
17/05:00pm 9.7 WSW 15 19 1004.6 - 1.0 - - - - - - -
17/04:30pm 9.6 SW 18 27 1004.0 - 1.0 - - - - - - -
17/04:00pm 9.7 SW 14 20 1003.7 - 1.0 - - - - - - -
17/03:30pm 9.1 SW 15 21 1003.5 - 1.0 - - - - - - -
17/03:00pm 10.0 WSW 18 26 1002.9 - 1.0 - - - - - - -
17/02:30pm 9.3 WSW 15 22 1003.0 - 1.0 - - - - - - -
17/02:00pm 9.1 WSW 12 16 1002.9 - 1.0 - - - - - - -
17/01:30pm 8.7 WSW 13 16 1002.9 - 1.0 - - - - - - -
17/01:00pm 8.7 WSW 15 20 1003.0 - 1.0 - - - - - - -
17/12:30pm 8.2 WSW 12 15 1003.1 - 1.0 - - - - - - -
17/12:00pm 7.3 WSW 16 19 1003.5 - 1.0 Recent precip. - - - - - -
17/11:30am 7.7 W 19 26 1003.6 - 0.6 - - - - - - -
17/11:16am 9.0 W 16 21 1003.2 - 0.4 - - - - - - -
17/11:00am 9.2 WSW 9 11 1003.0 - 0.0 - - - - - - -
17/10:30am 10.7 CALM 0 4 1003.0 - 0.0 - - - - - - -
17/10:00am 10.8 N 3 4 1003.1 - 0.0 - - - - - - -
17/09:30am 11.6 E 4 6 1003.3 - 0.0 - - - - - - -
17/09:00am 10.9 CALM 0 1 1003.6 - 0.0 - - - - - - -
17/08:30am 9.6 SW 4 5 1003.9 - 0.0 - - - - - - -
17/08:00am 9.3 WSW 1 2 1004.0 - 0.0 - - - - - - -
17/07:30am 9.3 SSW 1 4 1004.0 - 0.0 - - - - - - -
17/07:00am 8.2 SW 4 5 1004.3 - 0.0 - - - - - - -
17/06:30am 8.2 SSW 4 5 1004.3 - 0.0 - - - - - - -
17/06:00am 7.9 SSW 4 5 1004.6 - 0.0 - - - - - - -
17/05:30am 8.1 SSW 3 4 1004.7 - 0.0 - - - - - - -
17/05:00am 8.5 SSW 1 3 1004.9 - 0.0 - - - - - - -
17/04:30am 8.0 SSW 4 6 1005.2 - 0.0 - - - - - - -
17/04:00am 7.9 SSW 7 8 1005.6 - 0.0 - - - - - - -
17/03:30am 8.4 NW 1 3 1005.7 - 0.0 - - - - - - -
17/03:00am 8.8 NNW 2 3 1006.1 - 0.0 - - - - - - -
17/02:30am 9.0 N 2 2 1006.4 - 0.0 - - - - - - -
17/02:00am 9.0 CALM 0 3 1006.7 - 0.0 - - - - - - -
17/01:30am 8.9 WSW 2 3 1007.0 - 0.0 - - - - - - -
17/01:00am 8.2 SSW 3 4 1007.4 - 0.0 - - - - - - -
17/12:30am 8.3 S 6 7 1007.7 - 0.0 - - - - - - -
17/12:00am 8.3 S 5 7 1007.5 - 0.0 - - - - - - -
 
Date/Time
EST
Temp

°C
Wind Pressure Rain
since 9am
mm
Weather Cloud Vis
km
Sea
Height
m
Swell
Dir
 
Speed
knots
Gust
knots
hPa Trend Height
m
Period
s
Dir
16/11:30pm 8.3 SSW 4 5 1007.7 - 0.0 - - - - - - -
16/11:00pm 8.4 SSW 6 7 1008.0 - 0.0 - - - - - - -
16/10:30pm 8.4 SSW 4 5 1008.1 - 0.0 - - - - - - -
16/10:00pm 9.0 SW 4 5 1008.5 - 0.0 - - - - - - -
16/09:30pm 9.4 SSW 5 6 1008.4 - 0.0 - - - - - - -
16/09:00pm 9.4 SW 6 8 1008.9 - 0.0 - - - - - - -
16/08:30pm 8.8 S 5 5 1008.8 - 0.0 - - - - - - -
16/08:00pm 9.9 NW 3 6 1008.8 - 0.0 - - - - - - -
16/07:30pm 11.1 NNE 3 4 1008.7 - 0.0 - - - - - - -
16/07:00pm 11.3 NNE 3 4 1008.7 - 0.0 - - - - - - -
16/06:30pm 11.5 ENE 2 3 1008.7 - 0.0 - - - - - - -
16/06:00pm 11.7 E 2 2 1008.8 - 0.0 - - - - - - -
16/05:30pm 12.2 E 4 5 1008.9 - 0.0 - - - - - - -
16/05:00pm 12.3 ENE 6 7 1008.6 - 0.0 - - - - - - -
16/04:30pm 12.4 ENE 9 10 1008.7 - 0.0 - - - - - - -
16/04:00pm 12.4 ENE 9 11 1008.8 - 0.0 - - - - - - -
16/03:30pm 12.9 ENE 9 11 1008.8 - 0.0 - - - - - - -
16/03:00pm 12.9 SE 6 9 1008.8 - 0.0 - - - - - - -
16/02:30pm 13.0 ESE 6 8 1009.0 - 0.0 - - - - - - -
16/02:00pm 13.0 ESE 6 7 1009.3 - 0.0 - - - - - - -
16/01:30pm 12.8 ESE 6 7 1009.5 - 0.0 - - - - - - -
16/01:00pm 12.9 ESE 6 7 1009.7 - 0.0 - - - - - - -
16/12:30pm 13.4 ENE 4 5 1010.5 - 0.0 - - - - - - -
16/12:00pm 13.0 NNE 3 4 1011.1 - 0.0 - - - - - - -
16/11:30am 12.5 NNE 6 7 1011.6 - 0.0 - - - - - - -
16/11:00am 12.2 NNE 7 8 1011.9 - 0.0 - - - - - - -
16/10:30am 11.3 NNE 8 10 1012.4 - 0.0 - - - - - - -
16/10:00am 10.5 NNE 7 8 1012.7 - 0.0 - - - - - - -
16/09:30am 10.0 NNE 6 7 1012.9 - 0.0 - - - - - - -
16/09:00am 9.6 ENE 3 4 1013.1 - 0.0 - - - - - - -
16/08:30am 8.6 WNW 1 3 1013.4 - 0.0 - - - - - - -
16/08:00am 7.0 SW 4 6 1013.4 - 0.0 - - - - - - -
16/07:30am 6.0 SSW 4 5 1013.3 - 0.0 - - - - - - -
16/07:00am 5.1 SSW 3 4 1013.4 - 0.0 - - - - - - -
16/06:30am 5.8 S 1 3 1013.3 - 0.0 - - - - - - -
16/06:00am 4.8 S 4 5 1013.3 - 0.0 - - - - - - -
16/05:30am 4.9 S 5 6 1013.3 - 0.0 - - - - - - -
16/05:00am 4.9 S 6 8 1013.4 - 0.0 - - - - - - -
16/04:30am 4.9 S 6 7 1013.3 - 0.0 - - - - - - -
16/04:00am 5.0 S 5 6 1013.3 - 0.0 - - - - - - -
16/03:30am 5.9 NE 1 2 1013.3 - 0.0 - - - - - - -
16/03:00am 7.1 N 3 6 1013.6 - 0.0 - - - - - - -
16/02:30am 6.4 SSE 2 4 1013.8 - 0.0 - - - - - - -
16/02:00am 6.0 SW 3 4 1014.2 - 0.0 - - - - - - -
16/01:30am 5.3 SSW 3 4 1014.6 - 0.0 - - - - - - -
16/01:00am 6.3 SSW 2 4 1015.0 - 0.0 - - - - - - -
16/12:30am 5.9 SSW 3 4 1015.3 - 0.0 - - - - - - -
16/12:00am 5.7 SSW 4 4 1015.5 - 0.0 - - - - - - -

Other Formats:

Comma delimited format used in spreadsheet applications
http://www.bom.gov.au/fwo/IDT60701/IDT60701.94988.axf

JavaScript Object Notation format (JSON) in row-major order
http://www.bom.gov.au/fwo/IDT60701/IDT60701.94988.json